Bookmark and Share
Track history (hours):
 

Ecokeeper

Last reported at 2014-Apr-18 02:27 UTC. Time now 2014-Apr-18 03:08 UTC.
Position N 38°02' E 023°36'.

Length 90 m; draft 6.5 m.

Type: Tanker. MMSI: 240689000.

NotesDate/timePositionNaut miles runAvg speedWind from/ knotsBaromVisibWave heightAir tempDewpointWater temp
2014-Apr-18 02:27N 38°02' E 023°36'0 0.0
2014-Apr-18 01:33N 38°02' E 023°36'0 0.0
2014-Apr-18 00:33N 38°02' E 023°36'0 0.0
2014-Apr-17 23:33N 38°02' E 023°36'0 0.0
2014-Apr-17 22:33N 38°02' E 023°36'0 0.0
2014-Apr-17 21:29N 38°02' E 023°36'0 0.0
2014-Apr-17 20:33N 38°02' E 023°36'0 0.0
2014-Apr-17 19:33N 38°02' E 023°36'0 0.0
2014-Apr-17 18:33N 38°02' E 023°36'0 0.0
2014-Apr-17 17:33N 38°02' E 023°36'0 0.0
2014-Apr-17 16:33N 38°02' E 023°36'0 0.0
2014-Apr-17 15:32N 38°02' E 023°36'0 0.0
2014-Apr-17 13:33N 38°02' E 023°36'0 0.0
2014-Apr-17 10:03N 38°02' E 023°36'0 0.0
2014-Apr-17 09:21N 38°02' E 023°36'0 0.0
2014-Apr-17 08:05N 38°02' E 023°36'0 0.0
2014-Apr-17 07:27N 38°02' E 023°36'1 0.4
2014-Apr-17 06:03N 38°02' E 023°35'4 7.6
2014-Apr-17 05:30N 37°58' E 023°33'1 0.0
2014-Apr-15 17:12N 37°57' E 023°34'2 3.2
2014-Apr-15 16:34N 37°55' E 023°34'3 2.9
2014-Apr-15 15:33N 37°52' E 023°32'0 0.0
2014-Apr-15 14:33N 37°52' E 023°32'0 0.0
2014-Apr-15 12:34N 37°52' E 023°32'0 0.0
2014-Apr-15 11:34N 37°52' E 023°32'0 0.0
2014-Apr-15 10:34N 37°52' E 023°32'0 0.0
2014-Apr-15 09:34N 37°52' E 023°33'0 0.0
2014-Apr-15 08:34N 37°52' E 023°32'0 0.0
2014-Apr-15 07:34N 37°52' E 023°33'0 0.1
2014-Apr-15 06:34N 37°52' E 023°32'0 0.0
2014-Apr-15 05:34N 37°52' E 023°32'  
2014-Apr-12 13:33N 37°57' E 023°34'5 5.5
2014-Apr-12 12:33N 37°52' E 023°32'0 0.0
2014-Apr-12 11:34N 37°52' E 023°32'0 0.0
2014-Apr-12 10:33N 37°52' E 023°32'0 0.0
2014-Apr-12 09:33N 37°52' E 023°32'0 0.0
2014-Apr-12 08:33N 37°52' E 023°32'0 0.1
2014-Apr-12 07:33N 37°52' E 023°32'0 0.0
2014-Apr-12 06:33N 37°52' E 023°32'0 0.0
2014-Apr-12 05:33N 37°52' E 023°32'4 4.2
2014-Apr-12 04:33N 37°55' E 023°34'  

Dump ship's entire track history

sailing weather and tide predictions

Ecokeeper — SVTY — position and weather